Flight Track Log - Related Links

Times and Time Zones

All times are in EDT time to prevent confusion due to time zone crossing. See the DAL1937 flight status page for this flight to view local times or setup timezone preferences in your user account.

Time Position Orientation Groundspeed Altitude Reporting Facility
EDT Latitude Longitude Course Direction KTS MPH feet Rate Location/Type
Sat 06:49:24 AM 39.1833 -76.7500 251° West 178 205 2,400  Level Potomac TRACON
Sat 06:50:24 AM 39.2000 -76.8333 284° West 252 290 4,500 2,529 Climbing Potomac TRACON
Sat 06:51:00 AM 39.0630 -77.1825 254° West  Level FlightAware Approximate
Sat 06:51:25 AM 39.2167 -76.9333 282° West 267 307 7,500  Level Potomac TRACON
Sat 06:52:00 AM 39.0226 -77.3576 254° West  Level FlightAware Approximate
Sat 06:52:25 AM 39.2333 -77.0167 285° West 271 312 10,200  Level Potomac TRACON
Sat 06:53:00 AM 38.9956 -77.4994 257° West  Level FlightAware Approximate
Sat 06:53:25 AM 39.2167 -77.1000 256° West 281 323 12,800  Level Potomac TRACON
Sat 06:54:00 AM 38.9636 -77.6393 251° West  Level FlightAware Approximate
Sat 06:54:26 AM 39.1667 -77.1833 232° Southwest 296 341 14,900  Level Potomac TRACON
Sat 06:56:00 AM 39.0889 -77.3031 230° Southwest 319 367 18,200 1,922 Climbing Washington Center
Sat 06:56:59 AM 39.0622 -77.4094 252° West 313 360 19,800 1,488 Climbing Washington Center
Sat 06:58:01 AM 39.0542 -77.5242 265° West 313 360 21,200 976 Climbing Washington Center
Sat 06:59:02 AM 39.0519 -77.6631 269° West 343 395 21,800 555 Climbing Washington Center
Sat 07:00:00 AM 39.0517 -77.7914 270° West 382 440 22,300 872 Climbing Washington Center
Sat 07:00:59 AM 39.0511 -77.9411 270° West 407 468 23,500 1,190 Climbing Washington Center
Sat 07:02:01 AM 39.0478 -78.0961 268° West 425 489 24,700 1,131 Climbing Washington Center
Sat 07:03:01 AM 39.0467 -78.2508 270° West 430 495 25,800 1,041 Climbing Washington Center
Sat 07:04:02 AM 39.0431 -78.4086 268° West 441 507 26,800 950 Climbing Washington Center
Sat 07:05:01 AM 39.0603 -78.5642 278° West 441 507 27,700 923 Climbing Washington Center
Sat 07:05:59 AM 39.0853 -78.7258 281° West 446 513 28,600 958 Climbing Washington Center
Sat 07:07:00 AM 39.1081 -78.8844 281° West 452 520 29,600 1,082 Climbing Washington Center
Sat 07:08:01 AM 39.1328 -79.0408 282° West 452 520 30,800 1,059 Climbing Washington Center
Sat 07:08:59 AM 39.1408 -79.1992 274° West 452 520 31,700 1,200 Climbing Washington Center
Sat 07:10:01 AM 39.1167 -79.3719 260° West 441 507 33,200 1,131 Climbing Washington Center
Sat 07:11:01 AM 39.0950 -79.5258 260° West 441 507 34,000 857 Climbing Washington Center
Sat 07:12:00 AM 39.0711 -79.6797 259° West 446 513 34,900 500 Climbing Washington Center
Sat 07:13:01 AM 39.0469 -79.8333 259° West 446 513 35,000 60 Climbing Washington Center
Sat 07:13:40 AM 39.0308 -79.9211 257° West 431 496 35,000  Level Indianapolis Center
Sat 07:14:41 AM 39.0075 -80.0700 259° West 436 502 35,000 197 Level Indianapolis Center
Sat 07:15:42 AM 38.9864 -80.2336 261° West 430 495 35,400 492 Climbing Indianapolis Center
Sat 07:16:43 AM 38.9689 -80.3850 262° West 430 495 36,000 295 Climbing Indianapolis Center
Sat 07:17:44 AM 38.9494 -80.5367 261° West 430 495 36,000  Level Indianapolis Center
Sat 07:18:45 AM 38.9311 -80.6875 261° West 429 494 36,000  Level Indianapolis Center
Sat 07:19:46 AM 38.9119 -80.8397 261° West 434 499 36,000  Level Indianapolis Center
Sat 07:20:47 AM 38.8922 -80.9911 261° West 432 497 36,000  Level Indianapolis Center
Sat 07:21:48 AM 38.8731 -81.1419 261° West 429 494 36,000  Level Indianapolis Center
Sat 07:22:49 AM 38.8542 -81.2931 261° West 432 497 36,000  Level Indianapolis Center
Sat 07:23:50 AM 38.8311 -81.4739 261° West 435 501 36,000  Level Indianapolis Center
Sat 07:24:51 AM 38.8106 -81.6233 260° West 436 502 36,000  Level Indianapolis Center
Sat 07:25:52 AM 38.7903 -81.7736 260° West 434 499 36,000  Level Indianapolis Center
Sat 07:26:54 AM 38.7689 -81.9239 260° West 434 499 36,000  Level Indianapolis Center
Sat 07:27:55 AM 38.7522 -82.0756 262° West 432 497 36,000  Level Indianapolis Center
Sat 07:28:56 AM 38.7469 -82.2294 268° West 433 498 36,000  Level Indianapolis Center
Sat 07:29:57 AM 38.7414 -82.3833 267° West 433 498 36,000  Level Indianapolis Center
Sat 07:30:58 AM 38.7347 -82.5375 267° West 433 498 36,000  Level Indianapolis Center
Sat 07:31:59 AM 38.7275 -82.7228 267° West 435 501 36,000  Level Indianapolis Center
Sat 07:33:00 AM 38.7206 -82.8761 267° West 433 498 36,000  Level Indianapolis Center
Sat 07:34:01 AM 38.7136 -83.0300 267° West 433 498 36,000  Level Indianapolis Center
Sat 07:35:02 AM 38.7064 -83.1719 266° West 435 501 36,000  Level Indianapolis Center
Sat 07:36:03 AM 38.6997 -83.3300 267° West 439 505 36,000  Level Indianapolis Center
Sat 07:37:04 AM 38.6919 -83.4872 266° West 439 505 36,000  Level Indianapolis Center
Sat 07:38:06 AM 38.6839 -83.6436 266° West 436 502 36,000  Level Indianapolis Center
Sat 07:39:07 AM 38.6767 -83.8006 267° West 437 503 36,000  Level Indianapolis Center
Sat 07:40:08 AM 38.6683 -83.9564 266° West 436 502 36,000  Level Indianapolis Center
Sat 07:41:09 AM 38.6586 -84.1375 266° West 435 501 36,000  Level Indianapolis Center
Sat 07:42:10 AM 38.6656 -84.2925 273° West 438 504 36,000  Level Indianapolis Center
Sat 07:43:11 AM 38.7200 -84.4328 296° West 443 510 36,000  Level Indianapolis Center
Sat 07:44:12 AM 38.7933 -84.5597 307° West 443 510 36,000  Level Indianapolis Center
Sat 07:45:13 AM 38.8764 -84.6744 313° West 449 517 36,000  Level Indianapolis Center
Sat 07:46:15 AM 38.9831 -84.7714 325° Northwest 453 521 36,000  Level Indianapolis Center
Sat 07:47:16 AM 39.0833 -84.8661 324° Northwest 445 512 36,000  Level Indianapolis Center
Sat 07:48:17 AM 39.1783 -84.9550 324° Northwest 446 513 36,000  Level Indianapolis Center
Sat 07:49:18 AM 39.2792 -85.0475 325° Northwest 447 514 36,000  Level Indianapolis Center
Sat 07:50:19 AM 39.3775 -85.1417 324° Northwest 444 511 36,000  Level Indianapolis Center
Sat 07:51:20 AM 39.4753 -85.2347 324° Northwest 440 506 36,000  Level Indianapolis Center
Sat 07:52:22 AM 39.6072 -85.3106 336° Northwest 455 524 36,000  Level Indianapolis Center
Sat 07:53:23 AM 39.7358 -85.3022 North 466 536 36,000 -246 Level Indianapolis Center
Sat 07:54:24 AM 39.8622 -85.2900 North 462 532 35,500 -738 Descending Indianapolis Center
Sat 07:55:25 AM 39.9861 -85.2764 North 454 522 34,500 -934 Descending Indianapolis Center
Sat 07:56:26 AM 40.1083 -85.2317 16° North 457 526 33,600 -934 Descending Indianapolis Center
Sat 07:57:27 AM 40.2347 -85.1931 13° North 464 534 32,600 -984 Descending Indianapolis Center
Sat 07:58:28 AM 40.3611 -85.1514 14° North 470 541 31,600 -927 Descending Indianapolis Center
Sat 07:59:30 AM 40.4867 -85.1006 17° North 474 545 30,700 -780 Descending Indianapolis Center
Sat 08:00:31 AM 40.6375 -85.0361 18° North 477 549 30,000 -344 Descending Indianapolis Center
Sat 08:01:32 AM 40.7619 -84.9792 19° North 474 545 30,000  Level Indianapolis Center
Sat 08:02:33 AM 40.8872 -84.9231 19° North 478 550 30,000  Level Indianapolis Center
Sat 08:03:34 AM 41.0050 -84.8669 20° North 482 555 30,000  Level Indianapolis Center
Sat 08:04:36 AM 41.1372 -84.8467 North 473 544 30,000  Level Indianapolis Center
Sat 08:05:37 AM 41.2681 -84.8781 350° North 473 544 30,000 -1,279 Level Indianapolis Center
Sat 08:06:38 AM 41.3772 -84.9594 331° Northwest 436 502 27,400 -3,029 Descending Indianapolis Center
Sat 08:07:20 AM 41.4222 -85.0586 301° West 392 451 24,800 -2,458 Descending Cleveland Center
Sat 08:08:01 AM 41.3961 -85.1283 243° Southwest 368 423 24,000 -706 Descending Chicago Center
Sat 08:09:02 AM 41.3078 -85.1178 175° South 354 407 23,600 -1,426 Descending Chicago Center
Sat 08:10:03 AM 41.3033 -84.9906 93° East 384 442 21,100 -1,574 Descending Chicago Center
Sat 08:11:04 AM 41.3758 -84.8808 49° Northeast 401 461 20,400 -976 Descending Chicago Center
Sat 08:12:06 AM 41.4517 -84.7669 48° Northeast 413 475 19,100 -1,220 Descending Chicago Center
Sat 08:13:07 AM 41.5253 -84.6586 48° Northeast 400 460 17,900 -836 Descending Chicago Center
Sat 08:14:08 AM 41.6122 -84.5283 48° Northeast 395 455 17,400 -393 Descending Chicago Center
Sat 08:15:09 AM 41.6822 -84.4169 50° Northeast 393 452 17,100 -968 Descending Chicago Center
Sat 08:15:41 AM 41.7086 -84.3411 65° Northeast 398 458 15,900 -2,000 Descending Cleveland Center
Sat 08:16:18 AM 41.7403 -84.2622 62° Northeast 394 453 14,800 -1,539 Descending Cleveland Center
Sat 08:18:13 AM 41.8294 -84.0314 63° Northeast 384 442 12,000 -923 Descending Chicago Center
Sat 08:19:20 AM 41.9158 -83.9094 46° Northeast 398 458 12,000  Level Cleveland Center
Sat 08:21:20 AM 42.0653 -83.7075 45° Northeast 389 448 12,000  Level Cleveland Center

Login

Don't have an account? Register now (free) for customized features, flight alerts, and more!